»·PEaware :: N210AR KVNY-KWJF

N210AR :: KVNY-KWJF

FLIGHT INFORMATION

Flight Status: Arrived
Operator: Privately registered:
United States
More flights under this callsign
Pilot: Max S. (16657)
Aircraft: CESSNA 172 SKYHAWK
(C172)
More flights by this aircraft type
Origin: KVNY Van Nuys
United States
Destination: KWJF Gen Fox
United States
More flights between these airports :: More routes between these airports
Route:
File this flight plan on PilotEdge
Remarks: ALPHABET CHALLENGE
Altitude:
(Current/Filed)
5,500ft
Speed:
(Current/Filed)
110kts
Departed: 20-Nov-19 08:26 AM
Arrived: 20-Nov-19 09:08 AM
Distance/Time
Traveled:
35nm/0:41
Distance/Time
To Go:
Arrived

Flight Plot

Page will automatically refresh every two minutes.


Map Options




Map Legend


Flown Route
Filed Route
Departure Airport
Arrival Airport
Navaid (VOR, NDB)
Fix

Horizontal Profiles

Position Reports

Time Latitude Longitude Heading Altitude Ground
Speed
20-Nov-19 08:06 34.208890 -118.492042 132 806ft 0kts
20-Nov-19 08:07 34.208890 -118.492042 132 806ft 0kts
20-Nov-19 08:08 34.208890 -118.492042 132 806ft 0kts
20-Nov-19 08:09 34.208890 -118.492042 132 806ft 0kts
20-Nov-19 08:10 34.208890 -118.492042 132 806ft 0kts
20-Nov-19 08:11 34.208890 -118.492042 132 806ft 0kts
20-Nov-19 08:12 34.208890 -118.492042 132 806ft 0kts
20-Nov-19 08:13 34.208890 -118.492042 132 806ft 0kts
20-Nov-19 08:14 34.208890 -118.492042 132 806ft 0kts
20-Nov-19 08:15 34.208890 -118.492042 132 806ft 0kts
20-Nov-19 08:16 34.208890 -118.492042 132 806ft 0kts
20-Nov-19 08:17 34.208890 -118.492042 132 806ft 0kts
20-Nov-19 08:18 34.208790 -118.491854 101 806ft 0kts
20-Nov-19 08:19 34.210799 -118.491642 356 806ft 26kts
20-Nov-19 08:20 34.215154 -118.492121 353 806ft 35kts
20-Nov-19 08:21 34.218572 -118.492373 64 806ft 0kts
20-Nov-19 08:22 34.218572 -118.492373 64 806ft 0kts
20-Nov-19 08:23 34.218572 -118.492373 64 806ft 0kts
20-Nov-19 08:24 34.218663 -118.492178 61 806ft 12kts
20-Nov-19 08:25 34.213605 -118.490728 175 806ft 82kts
20-Nov-19 08:26 34.202006 -118.489773 173 1313ft 76kts
20-Nov-19 08:27 34.193241 -118.496287 233 1667ft 84kts
20-Nov-19 08:28 34.187222 -118.506314 263 2145ft 74kts
20-Nov-19 08:29 34.194882 -118.514482 343 2473ft 91kts
20-Nov-19 08:30 34.207975 -118.517039 351 2923ft 81kts
20-Nov-19 08:31 34.219423 -118.511231 21 3250ft 92kts
20-Nov-19 08:32 34.232341 -118.503788 47 3358ft 118kts
20-Nov-19 08:33 34.241421 -118.487507 55 3597ft 119kts
20-Nov-19 08:34 34.251311 -118.471917 37 3843ft 117kts
20-Nov-19 08:35 34.264960 -118.461490 22 4092ft 115kts
20-Nov-19 08:36 34.279388 -118.453429 18 4338ft 114kts
20-Nov-19 08:37 34.293983 -118.445865 17 4585ft 113kts
20-Nov-19 08:38 34.308445 -118.438488 17 4830ft 112kts
20-Nov-19 08:39 34.323054 -118.431052 16 5080ft 111kts
20-Nov-19 08:40 34.338683 -118.423148 17 5124ft 126kts
20-Nov-19 08:41 34.355682 -118.414412 17 5120ft 121kts
20-Nov-19 08:42 34.372062 -118.406060 17 5121ft 118kts
20-Nov-19 08:43 34.384092 -118.399940 17 5121ft 117kts
20-Nov-19 08:44 34.404361 -118.389590 17 5122ft 116kts
20-Nov-19 08:45 34.425984 -118.378599 17 5118ft 116kts
20-Nov-19 08:46 34.454973 -118.363820 17 5111ft 115kts
20-Nov-19 08:47 34.475269 -118.353472 17 5106ft 115kts
20-Nov-19 08:48 34.497299 -118.342217 17 5100ft 115kts
20-Nov-19 08:49 34.523840 -118.328660 17 5092ft 115kts
20-Nov-19 08:50 34.543931 -118.318355 14 5477ft 84kts
20-Nov-19 08:51 34.561788 -118.309363 16 5455ft 102kts
20-Nov-19 08:52 34.579505 -118.300264 16 5464ft 109kts
20-Nov-19 08:53 34.598210 -118.290534 16 5394ft 82kts
20-Nov-19 08:54 34.613155 -118.282046 21 4879ft 102kts
20-Nov-19 08:55 34.626867 -118.270423 28 4547ft 97kts
20-Nov-19 08:56 34.640141 -118.259057 17 4099ft 97kts
20-Nov-19 08:57 34.653884 -118.252792 19 3709ft 95kts
20-Nov-19 08:58 34.668864 -118.245240 16 3396ft 100kts
20-Nov-19 08:59 34.684104 -118.238393 16 3183ft 94kts
20-Nov-19 09:00 34.699016 -118.234140 2 3009ft 87kts
20-Nov-19 09:01 34.715501 -118.231419 1 2740ft 91kts
20-Nov-19 09:02 34.726860 -118.222688 66 2592ft 83kts
20-Nov-19 09:03 34.730983 -118.206824 71 2610ft 73kts
20-Nov-19 09:04 34.736363 -118.193871 356 2476ft 51kts
20-Nov-19 09:05 34.745198 -118.197527 285 2540ft 50kts
20-Nov-19 09:06 34.743791 -118.208262 252 2351ft 52kts
20-Nov-19 09:07 34.741701 -118.214453 214 2341ft 23kts
20-Nov-19 09:08 34.741248 -118.214785 200 2341ft 3kts
20-Nov-19 09:09 34.739802 -118.216178 163 2343ft 16kts
20-Nov-19 09:10 34.739150 -118.216870 246 2343ft 0kts
20-Nov-19 09:11 34.739150 -118.216870 246 2343ft 0kts
20-Nov-19 09:12 34.739150 -118.216870 246 2343ft 0kts
20-Nov-19 09:13 34.739150 -118.216870 246 2343ft 0kts
20-Nov-19 09:14 34.739150 -118.216870 246 2343ft 0kts
20-Nov-19 09:15 34.739150 -118.216870 246 2343ft 0kts

Navigation Log

Ident Type
Flight plan parsing failed, navigation log unavailable